createdAt,value
2022-11-05T00:03:54.373Z,97095.49
2022-11-05T00:07:38.526Z,97100.23
2022-11-05T00:10:59.975Z,97099.30
2022-11-05T00:14:56.492Z,97098.91
2022-11-05T00:18:17.937Z,97108.35
2022-11-05T00:22:14.663Z,97114.27
2022-11-05T00:25:35.941Z,97122.49
2022-11-05T00:29:33.797Z,97132.56
2022-11-05T00:33:14.435Z,97142.51
2022-11-05T00:36:35.611Z,97144.50
2022-11-05T00:40:14.803Z,97138.91
2022-11-05T00:44:09.729Z,97144.51
2022-11-05T00:48:08.782Z,97146.98
2022-11-05T00:51:29.994Z,97149.48
2022-11-05T00:55:32.729Z,97151.02
2022-11-05T00:59:12.881Z,97151.29
2022-11-05T01:02:52.808Z,97147.48
2022-11-05T01:06:16.124Z,97146.44
2022-11-05T01:10:10.178Z,97147.81
2022-11-05T01:13:32.287Z,97152.60
2022-11-05T01:17:27.102Z,97152.09
2022-11-05T01:20:49.226Z,97156.89
2022-11-05T01:24:25.498Z,97159.50
2022-11-05T01:28:04.607Z,97153.39
2022-11-05T01:31:59.807Z,97156.30
2022-11-05T01:35:21.152Z,97163.36
2022-11-05T01:38:58.532Z,97166.72
2022-11-05T01:42:36.358Z,97166.60
2022-11-05T01:46:45.146Z,97176.62
2022-11-05T01:50:32.539Z,97185.91
2022-11-05T01:54:06.281Z,97187.47
2022-11-05T01:57:33.038Z,97194.02
2022-11-05T02:01:28.941Z,97202.54
2022-11-05T02:04:54.961Z,97205.61
2022-11-05T02:09:12.537Z,97197.98
2022-11-05T02:12:36.720Z,97211.92
2022-11-05T02:16:17.909Z,97212.63
2022-11-05T02:20:09.608Z,97206.11
2022-11-05T02:24:02.058Z,97215.86
2022-11-05T02:27:54.364Z,97212.88
2022-11-05T02:31:31.050Z,97226.81
2022-11-05T02:35:41.033Z,97238.18
2022-11-05T02:39:50.330Z,97239.24
2022-11-05T02:43:22.168Z,97243.89
2022-11-05T02:46:57.803Z,97250.70
2022-11-05T02:50:55.908Z,97246.63
2022-11-05T02:54:24.600Z,97251.02
2022-11-05T02:57:55.396Z,97254.33
2022-11-05T03:01:35.987Z,97252.38
2022-11-05T03:05:10.701Z,97263.30
2022-11-05T03:09:12.366Z,97265.28
2022-11-05T03:13:11.568Z,97266.77
2022-11-05T03:17:15.896Z,97264.83
2022-11-05T03:20:59.103Z,97268.32
2022-11-05T03:24:26.726Z,97277.16
2022-11-05T03:28:21.379Z,97276.50
2022-11-05T03:32:04.051Z,97285.18
2022-11-05T03:35:29.532Z,97293.63
2022-11-05T03:39:49.937Z,97295.84
2022-11-05T03:43:14.310Z,97294.05
2022-11-05T03:46:49.800Z,97304.30
2022-11-05T03:50:42.005Z,97311.39
2022-11-05T03:54:05.083Z,97308.35
2022-11-05T03:57:44.219Z,97311.37
2022-11-05T04:01:18.754Z,97302.31
2022-11-05T04:04:56.530Z,97309.91
2022-11-05T04:08:52.939Z,97325.76
2022-11-05T04:12:33.267Z,97323.52
2022-11-05T04:16:32.091Z,97318.61
2022-11-05T04:20:11.972Z,97311.29
2022-11-05T04:23:52.554Z,97316.17
2022-11-05T04:27:13.707Z,97323.23
2022-11-05T04:30:51.214Z,97327.95
2022-11-05T04:34:29.127Z,97329.95
2022-11-05T04:38:09.412Z,97338.04
2022-11-05T04:41:48.004Z,97340.49
2022-11-05T04:45:23.928Z,97338.92
2022-11-05T04:48:59.936Z,97340.56
2022-11-05T04:52:37.640Z,97341.27
2022-11-05T04:56:19.808Z,97345.27
2022-11-05T04:59:55.119Z,97344.91
2022-11-05T05:03:51.284Z,97351.42
2022-11-05T05:07:31.984Z,97349.15
2022-11-05T05:10:52.699Z,97349.22
2022-11-05T05:14:30.103Z,97354.03
2022-11-05T05:18:09.545Z,97360.29
2022-11-05T05:21:45.377Z,97364.75
2022-11-05T05:25:41.935Z,97362.91
2022-11-05T05:29:03.642Z,97366.61
2022-11-05T05:33:02.404Z,97376.29
2022-11-05T05:36:23.943Z,97384.71
2022-11-05T05:40:01.088Z,97386.92
2022-11-05T05:43:38.458Z,97394.28
2022-11-05T05:47:16.353Z,97400.70
2022-11-05T05:50:53.925Z,97399.55
2022-11-05T05:54:50.543Z,97399.77
2022-11-05T05:58:11.208Z,97406.53
2022-11-05T06:01:49.149Z,97409.96
2022-11-05T06:05:26.456Z,97418.70
2022-11-05T06:09:04.280Z,97427.61
2022-11-05T06:12:41.818Z,97436.39
2022-11-05T06:16:39.726Z,97436.33
2022-11-05T06:20:19.444Z,97444.64
2022-11-05T06:23:42.260Z,97447.96
2022-11-05T06:27:36.578Z,97451.45
2022-11-05T06:30:57.924Z,97459.90
2022-11-05T06:34:36.832Z,97466.08
2022-11-05T06:38:33.539Z,97477.92
2022-11-05T06:42:20.571Z,97489.61
2022-11-05T06:45:41.861Z,97500.48
2022-11-05T06:49:38.866Z,97507.40
2022-11-05T06:53:18.459Z,97516.20
2022-11-05T06:56:57.962Z,97529.66
2022-11-05T07:00:38.468Z,97536.77
2022-11-05T07:03:59.204Z,97531.55
2022-11-05T07:07:53.922Z,97541.60
2022-11-05T07:11:14.544Z,97553.02
2022-11-05T07:14:52.492Z,97561.88
2022-11-05T07:18:48.837Z,97571.73
2022-11-05T07:22:28.244Z,97572.05
2022-11-05T07:25:48.786Z,97572.59
2022-11-05T07:29:45.439Z,97573.45
2022-11-05T07:33:24.851Z,97572.48
2022-11-05T07:37:04.522Z,97580.20
2022-11-05T07:40:28.013Z,97586.95
2022-11-05T07:44:04.145Z,97589.80
2022-11-05T07:48:02.317Z,97591.50
2022-11-05T07:51:23.299Z,97594.55
2022-11-05T07:55:00.739Z,97597.88
2022-11-05T07:58:39.066Z,97601.26
2022-11-05T08:02:16.339Z,97604.99
2022-11-05T08:06:12.876Z,97604.97
2022-11-05T08:09:33.743Z,97612.67
2022-11-05T08:13:13.403Z,97614.60
2022-11-05T08:17:08.019Z,97615.64
2022-11-05T08:20:29.379Z,97615.23
2022-11-05T08:24:06.672Z,97611.73
2022-11-05T08:27:45.735Z,97608.35
2022-11-05T08:31:40.266Z,97608.61
2022-11-05T08:35:19.885Z,97609.11
2022-11-05T08:38:58.983Z,97610.58
2022-11-05T08:42:19.650Z,97615.27
2022-11-05T08:46:16.395Z,97613.48
2022-11-05T08:49:37.307Z,97622.21
2022-11-05T08:53:15.716Z,97627.23
2022-11-05T08:56:52.804Z,97636.27
2022-11-05T09:00:49.524Z,97643.70
2022-11-05T09:04:10.479Z,97650.36
2022-11-05T09:07:48.428Z,97653.93
2022-11-05T09:11:43.027Z,97659.77
2022-11-05T09:15:26.857Z,97661.06
2022-11-05T09:18:48.385Z,97660.73
2022-11-05T09:22:25.359Z,97664.48
2022-11-05T09:26:22.092Z,97667.14
2022-11-05T09:30:02.361Z,97669.88
2022-11-05T09:33:42.004Z,97668.87
2022-11-05T09:37:02.999Z,97670.17
2022-11-05T09:41:11.880Z,97675.14
2022-11-05T09:44:49.128Z,97668.33
2022-11-05T09:48:33.266Z,97669.31
2022-11-05T09:51:56.661Z,97674.45
2022-11-05T09:55:41.997Z,97680.37
2022-11-05T09:59:35.899Z,97684.58
2022-11-05T10:03:21.418Z,97690.20
2022-11-05T10:06:50.137Z,97694.16
2022-11-05T10:10:41.023Z,97693.95
2022-11-05T10:14:33.029Z,97695.21
2022-11-05T10:17:59.624Z,97696.08
2022-11-05T10:21:51.831Z,97696.55
2022-11-05T10:25:37.322Z,97698.34
2022-11-05T10:28:58.249Z,97700.52
2022-11-05T10:32:40.489Z,97700.58
2022-11-05T10:36:37.258Z,97701.66
2022-11-05T10:40:30.420Z,97699.42
2022-11-05T10:44:28.363Z,97704.02
2022-11-05T10:47:58.347Z,97704.33
2022-11-05T10:51:27.455Z,97716.85
2022-11-05T10:55:34.712Z,97719.33
2022-11-05T10:59:27.682Z,97720.92
2022-11-05T11:03:29.490Z,97718.27
2022-11-05T11:06:56.854Z,97719.17
2022-11-05T11:11:04.570Z,97719.66
2022-11-05T11:15:01.966Z,97725.09
2022-11-05T11:18:29.258Z,97729.56
2022-11-05T11:22:03.645Z,97728.16
2022-11-05T11:26:01.059Z,97735.53
2022-11-05T11:29:28.765Z,97746.64
2022-11-05T11:33:23.205Z,97749.64
2022-11-05T11:36:49.302Z,97745.85
2022-11-05T11:40:23.495Z,97743.73
2022-11-05T11:44:19.577Z,97746.60
2022-11-05T11:48:11.643Z,97743.11
2022-11-05T11:51:40.802Z,97744.67
2022-11-05T11:55:13.480Z,97757.27
2022-11-05T11:59:30.799Z,97766.75
2022-11-05T12:03:15.047Z,97773.58
2022-11-05T12:07:19.802Z,97774.55
2022-11-05T12:10:54.587Z,97775.24
2022-11-05T12:14:53.876Z,97769.90
2022-11-05T12:18:39.708Z,97768.62
2022-11-05T12:22:26.736Z,97772.84
2022-11-05T12:25:50.696Z,97776.53
2022-11-05T12:29:38.278Z,97780.08
2022-11-05T12:33:49.488Z,97782.69
2022-11-05T12:37:26.131Z,97801.23
2022-11-05T12:40:57.059Z,97805.09
2022-11-05T12:44:38.153Z,97811.02
2022-11-05T12:48:27.539Z,97810.34
2022-11-05T12:51:59.855Z,97811.08
2022-11-05T12:55:48.388Z,97816.54
2022-11-05T12:59:16.033Z,97816.84
2022-11-05T13:03:02.527Z,97821.23
2022-11-05T13:06:39.773Z,97826.14
2022-11-05T13:10:25.290Z,97831.91
2022-11-05T13:14:14.600Z,97834.91
2022-11-05T13:17:59.364Z,97833.17
2022-11-05T13:21:24.212Z,97832.89
2022-11-05T13:25:21.068Z,97830.78
2022-11-05T13:28:55.656Z,97840.45
2022-11-05T13:32:38.010Z,97847.30
2022-11-05T13:36:45.805Z,97858.54
2022-11-05T13:40:11.971Z,97867.35
2022-11-05T13:44:41.239Z,97866.05
2022-11-05T13:48:33.075Z,97868.98
2022-11-05T13:52:23.160Z,97876.26
2022-11-05T13:56:03.452Z,97882.29
2022-11-05T13:59:57.879Z,97888.00
2022-11-05T14:03:21.207Z,97893.60
2022-11-05T14:07:15.263Z,97893.02
2022-11-05T14:10:43.936Z,97889.02
2022-11-05T14:14:22.904Z,97895.77
2022-11-05T14:18:23.447Z,97898.34
2022-11-05T14:22:28.120Z,97905.89
2022-11-05T14:26:21.670Z,97905.62
2022-11-05T14:29:49.822Z,97914.52
2022-11-05T14:33:26.231Z,97918.45
2022-11-05T14:37:22.297Z,97925.45
2022-11-05T14:40:47.689Z,97930.57
2022-11-05T14:44:21.288Z,97937.58
2022-11-05T14:48:05.327Z,97948.66
2022-11-05T14:51:58.568Z,97955.49
2022-11-05T14:55:42.618Z,97968.89
2022-11-05T14:59:30.924Z,97971.55
2022-11-05T15:02:58.175Z,97979.17
2022-11-05T15:06:37.348Z,97979.30
2022-11-05T15:10:15.726Z,97978.17
2022-11-05T15:14:02.831Z,97974.32
2022-11-05T15:17:31.978Z,97975.05
2022-11-05T15:21:05.019Z,97982.08
2022-11-05T15:24:42.895Z,97991.02
2022-11-05T15:28:37.421Z,97997.00
2022-11-05T15:31:59.076Z,98004.09
2022-11-05T15:35:39.773Z,98002.63
2022-11-05T15:39:41.645Z,98004.39
2022-11-05T15:43:19.648Z,98011.04
2022-11-05T15:46:41.116Z,98014.90
2022-11-05T15:50:18.653Z,98017.04
2022-11-05T15:54:28.949Z,98027.05
2022-11-05T15:57:51.289Z,98032.34
2022-11-05T16:01:28.370Z,98035.29
2022-11-05T16:05:17.744Z,98033.89
2022-11-05T16:08:57.460Z,98037.09
2022-11-05T16:12:18.954Z,98046.11
2022-11-05T16:16:00.051Z,98045.02
2022-11-05T16:19:40.340Z,98045.86
2022-11-05T16:23:25.258Z,98059.11
2022-11-05T16:27:03.606Z,98058.90
2022-11-05T16:30:27.687Z,98061.88
2022-11-05T16:34:40.857Z,98067.91
2022-11-05T16:38:20.473Z,98070.17
2022-11-05T16:41:43.359Z,98064.65
2022-11-05T16:45:41.278Z,98064.98
2022-11-05T16:49:21.996Z,98067.21
2022-11-05T16:52:45.188Z,98073.41
2022-11-05T16:56:22.614Z,98083.47
2022-11-05T17:00:00.524Z,98096.92
2022-11-05T17:03:54.704Z,98101.98
2022-11-05T17:07:15.392Z,98102.60
2022-11-05T17:11:17.393Z,98111.13
2022-11-05T17:14:38.604Z,98113.33
2022-11-05T17:18:18.768Z,98114.85
2022-11-05T17:22:12.300Z,98109.96
2022-11-05T17:25:33.213Z,98109.12
2022-11-05T17:29:11.291Z,98105.60
2022-11-05T17:33:07.434Z,98107.34
2022-11-05T17:36:28.107Z,98113.46
2022-11-05T17:40:08.035Z,98113.66
2022-11-05T17:44:02.340Z,98115.95
2022-11-05T17:47:42.144Z,98116.52
2022-11-05T17:51:03.498Z,98118.61
2022-11-05T17:54:40.340Z,98120.69
2022-11-05T17:58:18.958Z,98122.02
2022-11-05T18:01:56.217Z,98119.60
2022-11-05T18:05:52.449Z,98118.80
2022-11-05T18:09:13.891Z,98124.92
2022-11-05T18:12:51.204Z,98128.48
2022-11-05T18:16:28.269Z,98135.31
2022-11-05T18:20:10.695Z,98132.77
2022-11-05T18:23:43.882Z,98137.89
2022-11-05T18:27:24.642Z,98151.45
2022-11-05T18:31:20.033Z,98153.85
2022-11-05T18:34:40.886Z,98160.13
2022-11-05T18:38:18.550Z,98164.05
2022-11-05T18:41:56.318Z,98167.95
2022-11-05T18:45:55.813Z,98167.21
2022-11-05T18:49:16.662Z,98158.13
2022-11-05T18:52:54.227Z,98168.42
2022-11-05T18:56:32.645Z,98178.40
2022-11-05T19:00:10.075Z,98186.20
2022-11-05T19:03:48.118Z,98182.27
2022-11-05T19:07:24.821Z,98183.22
2022-11-05T19:11:09.347Z,98193.15
2022-11-05T19:15:02.333Z,98191.54
2022-11-05T19:18:24.007Z,98193.08
2022-11-05T19:22:01.545Z,98196.42
2022-11-05T19:25:39.368Z,98197.79
2022-11-05T19:29:16.729Z,98202.05
2022-11-05T19:32:57.341Z,98209.86
2022-11-05T19:36:33.259Z,98209.69
2022-11-05T19:40:28.817Z,98217.13
2022-11-05T19:43:50.342Z,98215.98
2022-11-05T19:47:27.289Z,98223.95
2022-11-05T19:51:10.285Z,98230.51
2022-11-05T19:54:42.671Z,98239.27
2022-11-05T19:58:20.102Z,98247.39
2022-11-05T20:02:18.454Z,98249.93
2022-11-05T20:05:39.375Z,98260.80
2022-11-05T20:09:22.052Z,98263.55
2022-11-05T20:13:19.634Z,98262.60
2022-11-05T20:16:42.391Z,98260.31
2022-11-05T20:20:19.402Z,98267.52
2022-11-05T20:24:22.462Z,98269.63
2022-11-05T20:27:45.225Z,98279.14
2022-11-05T20:31:24.073Z,98280.42
2022-11-05T20:35:00.617Z,98273.80
2022-11-05T20:38:38.649Z,98280.58
2022-11-05T20:42:36.999Z,98283.84
2022-11-05T20:45:59.085Z,98294.60
2022-11-05T20:49:36.867Z,98298.16
2022-11-05T20:53:14.432Z,98289.77
2022-11-05T20:57:10.619Z,98294.36
2022-11-05T21:00:31.557Z,98301.57
2022-11-05T21:04:08.908Z,98296.45
2022-11-05T21:08:05.638Z,98295.86
2022-11-05T21:11:26.824Z,98295.13
2022-11-05T21:15:05.972Z,98296.35
2022-11-05T21:18:42.139Z,98298.63
2022-11-05T21:22:20.035Z,98301.26
2022-11-05T21:25:57.427Z,98305.53
2022-11-05T21:29:35.269Z,98308.45
2022-11-05T21:33:32.851Z,98309.07
2022-11-05T21:37:12.762Z,98316.48
2022-11-05T21:40:33.417Z,98314.05
2022-11-05T21:44:11.225Z,98317.42
2022-11-05T21:47:48.750Z,98314.23
2022-11-05T21:51:45.898Z,98307.52
2022-11-05T21:55:44.704Z,98310.92
2022-11-05T21:59:25.300Z,98314.16
2022-11-05T22:02:46.781Z,98317.33
2022-11-05T22:06:43.386Z,98309.98
2022-11-05T22:10:09.658Z,98316.19
2022-11-05T22:14:00.463Z,98318.92
2022-11-05T22:17:21.882Z,98321.06
2022-11-05T22:21:18.357Z,98317.70
2022-11-05T22:24:59.066Z,98310.02
2022-11-05T22:28:20.170Z,98312.95
2022-11-05T22:32:16.503Z,98318.75
2022-11-05T22:35:39.431Z,98315.89
2022-11-05T22:39:33.871Z,98316.31
2022-11-05T22:42:54.560Z,98318.79
2022-11-05T22:46:51.954Z,98314.79
2022-11-05T22:50:12.659Z,98318.52
2022-11-05T22:53:50.581Z,98316.25
2022-11-05T22:57:27.980Z,98312.13
2022-11-05T23:01:07.981Z,98321.13
2022-11-05T23:04:43.234Z,98323.79
2022-11-05T23:08:58.466Z,98320.33
2022-11-05T23:12:38.579Z,98327.80
2022-11-05T23:16:18.125Z,98328.96
2022-11-05T23:20:30.992Z,98327.57
2022-11-05T23:24:06.944Z,98325.98
2022-11-05T23:27:50.759Z,98330.16
2022-11-05T23:31:30.075Z,98336.05
2022-11-05T23:35:10.987Z,98338.89
2022-11-05T23:38:50.808Z,98347.31
2022-11-05T23:42:51.522Z,98342.98
2022-11-05T23:46:49.833Z,98345.52
2022-11-05T23:50:34.405Z,98347.09
2022-11-05T23:54:16.493Z,98349.58
2022-11-05T23:57:38.128Z,98353.48
